Time;durP1;ratioP1;P1;durP2;ratioP2;P2;SDS_P1;SDS_P2;PMS_P1;PMS_P2;Temp;Humidity;BMP_temperature;BMP_pressure;BME280_temperature;BME280_humidity;BME280_pressure;Samples;Min_cycle;Max_cycle;Signal;HPM_P1;HPM_P2
2021/11/21 00:01:01;;;;;;;25.00;18.65;;;4.00;99.90;;;;;;2669070;28;20530;-69
2021/11/21 00:02:19;;;;;;;23.40;17.80;;;4.10;99.90;;;;;;2666317;28;20688;-69
2021/11/21 00:03:38;;;;;;;20.30;16.92;;;4.10;99.90;;;;;;2663504;28;20198;-69
2021/11/21 00:04:57;;;;;;;24.67;19.23;;;4.10;99.90;;;;;;2663127;28;20719;-69
2021/11/21 00:06:16;;;;;;;25.42;19.30;;;4.10;99.90;;;;;;2665355;28;20947;-69
2021/11/21 00:07:34;;;;;;;26.70;18.77;;;4.10;99.90;;;;;;2669259;28;20721;-69
2021/11/21 00:08:53;;;;;;;25.27;19.83;;;4.20;99.90;;;;;;2669394;28;20208;-69
2021/11/21 00:10:11;;;;;;;26.02;19.77;;;4.20;99.90;;;;;;2668356;28;20892;-69
2021/11/21 00:11:30;;;;;;;26.00;18.80;;;4.20;99.90;;;;;;2669071;28;20213;-69
2021/11/21 00:12:49;;;;;;;23.45;18.65;;;4.20;99.90;;;;;;2665571;28;20209;-69
2021/11/21 00:14:09;;;;;;;24.20;18.77;;;4.20;99.90;;;;;;2665846;28;20605;-69
2021/11/21 00:15:27;;;;;;;23.77;18.75;;;4.20;99.90;;;;;;2664733;28;20281;-69
2021/11/21 00:16:46;;;;;;;25.05;17.83;;;4.30;99.90;;;;;;2665182;28;20690;-69
2021/11/21 00:18:05;;;;;;;25.60;18.85;;;4.30;99.90;;;;;;2668427;28;20213;-69
2021/11/21 00:19:24;;;;;;;23.35;18.00;;;4.20;99.90;;;;;;2667097;28;20217;-69
2021/11/21 00:20:44;;;;;;;24.25;19.45;;;4.30;99.90;;;;;;2668572;28;20228;-69
2021/11/21 00:22:04;;;;;;;23.70;18.63;;;4.30;99.90;;;;;;2666024;28;20614;-69
2021/11/21 00:23:23;;;;;;;22.73;19.08;;;4.20;99.90;;;;;;2661295;28;20212;-69
2021/11/21 00:24:43;;;;;;;25.30;19.10;;;4.30;99.90;;;;;;2668426;28;21083;-69
2021/11/21 00:26:01;;;;;;;20.88;17.95;;;4.30;99.90;;;;;;2669357;28;20666;-69
2021/11/21 00:27:21;;;;;;;24.40;18.58;;;4.30;99.90;;;;;;2664611;28;20299;-69
2021/11/21 00:28:39;;;;;;;26.65;19.58;;;4.30;99.90;;;;;;2669329;28;20641;-69
2021/11/21 00:29:57;;;;;;;20.23;17.77;;;4.30;99.90;;;;;;2663075;28;20201;-69
2021/11/21 00:31:17;;;;;;;21.17;17.15;;;4.30;99.90;;;;;;2665725;28;20311;-69
2021/11/21 00:32:35;;;;;;;23.20;16.95;;;4.20;99.90;;;;;;2666310;28;20225;-68
2021/11/21 00:33:54;;;;;;;21.57;17.23;;;4.20;99.90;;;;;;2668689;28;20563;-69
2021/11/21 00:35:13;;;;;;;19.45;16.52;;;4.20;99.90;;;;;;2661549;28;20897;-69
2021/11/21 00:36:31;;;;;;;23.77;17.98;;;4.20;99.90;;;;;;2667647;28;20272;-69
2021/11/21 00:37:50;;;;;;;24.90;19.92;;;4.30;99.90;;;;;;2668028;28;20201;-69
2021/11/21 00:39:08;;;;;;;22.67;17.42;;;4.20;99.90;;;;;;2662534;28;20216;-68
2021/11/21 00:40:28;;;;;;;23.17;18.05;;;4.20;99.90;;;;;;2667509;28;20209;-68
2021/11/21 00:41:46;;;;;;;22.60;18.00;;;4.20;99.90;;;;;;2664480;28;20302;-69
2021/11/21 00:43:05;;;;;;;21.42;17.98;;;4.20;99.90;;;;;;2666224;28;20205;-69
2021/11/21 00:44:24;;;;;;;21.23;16.73;;;4.20;99.90;;;;;;2664305;28;20742;-69
2021/11/21 00:45:43;;;;;;;23.95;16.95;;;4.20;99.90;;;;;;2668750;28;20227;-69
2021/11/21 00:47:01;;;;;;;20.42;16.85;;;4.30;99.90;;;;;;2669374;28;20209;-69
2021/11/21 00:48:22;;;;;;;20.67;17.43;;;4.30;99.90;;;;;;2668604;28;20661;-69
2021/11/21 00:49:42;;;;;;;19.58;17.23;;;4.30;99.90;;;;;;2668428;28;20820;-69
2021/11/21 00:51:02;;;;;;;18.27;16.23;;;4.30;99.90;;;;;;2667356;28;20283;-69
2021/11/21 00:52:21;;;;;;;20.13;17.23;;;4.30;99.90;;;;;;2660664;28;20240;-68
2021/11/21 00:53:42;;;;;;;20.23;17.55;;;4.30;99.90;;;;;;2668437;28;20209;-69
2021/11/21 00:55:09;;;;;;;19.33;15.75;;;4.30;99.90;;;;;;2667902;28;20462;-69
2021/11/21 00:56:28;;;;;;;22.67;17.00;;;4.40;99.90;;;;;;2668941;28;20259;-69
2021/11/21 00:57:47;;;;;;;19.85;16.55;;;4.40;99.90;;;;;;2668648;28;20216;-69
2021/11/21 00:59:05;;;;;;;19.25;17.23;;;4.40;99.90;;;;;;2667305;28;20265;-69
2021/11/21 01:00:23;;;;;;;19.95;16.63;;;4.40;99.90;;;;;;2666845;28;20217;-69
2021/11/21 01:01:42;;;;;;;20.52;16.92;;;4.50;99.90;;;;;;2663609;28;20206;-69
2021/11/21 01:02:59;;;;;;;18.75;16.65;;;4.50;99.90;;;;;;2664679;28;20194;-69
2021/11/21 01:04:19;;;;;;;17.13;15.05;;;4.40;99.90;;;;;;2666630;28;20214;-69
2021/11/21 01:05:38;;;;;;;17.55;14.80;;;4.40;99.90;;;;;;2669015;28;20201;-69
2021/11/21 01:06:57;;;;;;;18.83;16.83;;;4.40;99.90;;;;;;2663659;28;20676;-69
2021/11/21 01:08:16;;;;;;;17.60;15.45;;;4.40;99.90;;;;;;2666215;28;20740;-69
2021/11/21 01:09:34;;;;;;;19.23;13.85;;;4.40;99.90;;;;;;2660843;28;20210;-69
2021/11/21 01:10:57;;;;;;;17.77;14.82;;;4.50;99.90;;;;;;2666747;28;20819;-68
2021/11/21 01:12:16;;;;;;;17.75;15.85;;;4.50;99.90;;;;;;2666491;28;20226;-69
2021/11/21 01:13:37;;;;;;;16.10;14.25;;;4.50;99.90;;;;;;2660076;28;20684;-68
2021/11/21 01:14:55;;;;;;;18.77;16.13;;;4.40;99.90;;;;;;2665116;28;20224;-68
2021/11/21 01:16:14;;;;;;;16.33;14.43;;;4.40;99.90;;;;;;2665271;28;20212;-68
2021/11/21 01:17:33;;;;;;;18.10;14.75;;;4.30;99.90;;;;;;2668317;28;20824;-69
2021/11/21 01:18:52;;;;;;;17.67;15.77;;;4.30;99.90;;;;;;2666531;28;20211;-68
2021/11/21 01:20:10;;;;;;;17.23;14.80;;;4.10;99.90;;;;;;2667582;28;20198;-69
2021/11/21 01:21:29;;;;;;;18.58;16.40;;;4.00;99.90;;;;;;2667600;28;20214;-68
2021/11/21 01:22:49;;;;;;;18.40;16.30;;;3.90;99.90;;;;;;2666361;28;20204;-69
2021/11/21 01:24:07;;;;;;;20.67;16.50;;;3.90;99.90;;;;;;2667802;28;20223;-69
2021/11/21 01:25:26;;;;;;;19.15;15.30;;;3.90;99.90;;;;;;2667088;28;20674;-68
2021/11/21 01:26:44;;;;;;;20.92;17.48;;;3.90;99.90;;;;;;2667373;28;20205;-69
2021/11/21 01:28:04;;;;;;;21.10;17.17;;;3.90;99.90;;;;;;2667917;28;20288;-69
2021/11/21 01:29:23;;;;;;;21.67;17.30;;;3.90;99.90;;;;;;2666424;28;20257;-69
2021/11/21 01:30:42;;;;;;;22.73;17.52;;;3.90;99.90;;;;;;2665495;28;20707;-69
2021/11/21 01:32:03;;;;;;;20.27;17.80;;;4.00;99.90;;;;;;2668463;28;20208;-69
2021/11/21 01:33:22;;;;;;;20.48;16.75;;;4.00;99.90;;;;;;2662729;28;20214;-69
2021/11/21 01:34:40;;;;;;;21.08;17.67;;;4.00;99.90;;;;;;2668095;28;20663;-69
2021/11/21 01:36:00;;;;;;;20.88;17.02;;;4.00;99.90;;;;;;2666580;28;20206;-68
2021/11/21 01:37:19;;;;;;;22.58;18.92;;;4.10;99.90;;;;;;2667941;28;21134;-69
2021/11/21 01:38:40;;;;;;;18.75;16.85;;;4.20;99.90;;;;;;2668095;28;20204;-68
2021/11/21 01:39:58;;;;;;;21.15;18.33;;;4.10;99.90;;;;;;2666227;28;20291;-69
2021/11/21 01:41:19;;;;;;;19.80;17.58;;;4.10;99.90;;;;;;2667714;28;20662;-69
2021/11/21 01:42:39;;;;;;;23.80;17.55;;;4.10;99.90;;;;;;2666295;28;20289;-69
2021/11/21 01:43:58;;;;;;;23.85;17.35;;;4.10;99.90;;;;;;2666594;28;20839;-69
2021/11/21 01:45:17;;;;;;;20.70;16.77;;;4.10;99.90;;;;;;2666437;28;20701;-69
2021/11/21 01:46:39;;;;;;;20.58;17.33;;;4.10;99.90;;;;;;2658351;28;20217;-69
2021/11/21 01:47:57;;;;;;;20.67;18.47;;;4.10;99.90;;;;;;2654163;28;20273;-69
2021/11/21 01:49:16;;;;;;;21.45;17.92;;;4.20;99.90;;;;;;2660413;28;20458;-69
2021/11/21 01:50:37;;;;;;;21.13;17.85;;;4.10;99.90;;;;;;2663061;28;20288;-69
2021/11/21 01:51:55;;;;;;;21.08;18.63;;;4.10;99.90;;;;;;2663467;28;20219;-69
2021/11/21 01:53:15;;;;;;;25.10;19.37;;;4.10;99.90;;;;;;2666500;28;20205;-68
2021/11/21 01:54:34;;;;;;;23.17;18.92;;;4.10;99.90;;;;;;2667375;28;20864;-68
2021/11/21 01:55:53;;;;;;;20.85;17.42;;;4.10;99.90;;;;;;2659110;28;20206;-69
2021/11/21 01:57:12;;;;;;;23.52;18.52;;;4.10;99.90;;;;;;2665156;28;20208;-69
2021/11/21 01:58:31;;;;;;;23.27;19.38;;;4.10;99.90;;;;;;2666772;28;20254;-69
2021/11/21 01:59:50;;;;;;;21.80;18.40;;;4.10;99.90;;;;;;2662336;28;20206;-68
2021/11/21 02:01:09;;;;;;;25.45;19.55;;;4.10;99.90;;;;;;2665658;28;20204;-69
2021/11/21 02:02:28;;;;;;;23.55;19.50;;;4.10;99.90;;;;;;2667133;28;20293;-69
2021/11/21 02:03:47;;;;;;;23.45;18.77;;;4.20;99.90;;;;;;2665997;28;20209;-69
2021/11/21 02:05:05;;;;;;;24.98;18.83;;;4.20;99.90;;;;;;2667803;28;20213;-68
2021/11/21 02:06:25;;;;;;;23.95;18.60;;;4.10;99.90;;;;;;2667633;28;20210;-69
2021/11/21 02:07:46;;;;;;;22.20;18.70;;;4.10;99.90;;;;;;2665965;28;20209;-69
2021/11/21 02:09:05;;;;;;;20.60;18.23;;;4.10;99.90;;;;;;2661150;28;20298;-69
2021/11/21 02:10:23;;;;;;;23.48;17.67;;;4.10;99.90;;;;;;2665599;28;20211;-69
2021/11/21 02:11:42;;;;;;;20.85;17.70;;;4.10;99.90;;;;;;2667938;28;20286;-69
2021/11/21 02:13:00;;;;;;;19.67;16.25;;;4.10;99.90;;;;;;2667921;28;20666;-68
2021/11/21 02:14:19;;;;;;;20.73;16.20;;;4.10;99.90;;;;;;2665282;28;20202;-69
2021/11/21 02:15:38;;;;;;;19.98;16.35;;;4.10;99.90;;;;;;2666652;28;20842;-69
2021/11/21 02:16:57;;;;;;;19.73;16.05;;;4.20;99.90;;;;;;2667982;28;20214;-69
2021/11/21 02:18:15;;;;;;;21.15;16.58;;;4.20;99.90;;;;;;2665117;28;20273;-69
2021/11/21 02:19:34;;;;;;;21.60;16.85;;;4.20;99.90;;;;;;2665524;28;21143;-69
2021/11/21 02:20:55;;;;;;;21.90;17.00;;;4.20;99.90;;;;;;2665076;28;20592;-69
2021/11/21 02:22:14;;;;;;;22.33;17.38;;;4.20;99.90;;;;;;2666679;28;20563;-69
2021/11/21 02:23:34;;;;;;;19.52;16.45;;;4.20;99.90;;;;;;2667370;28;20251;-68
2021/11/21 02:24:52;;;;;;;19.02;16.90;;;4.20;99.90;;;;;;2660427;28;20201;-69
2021/11/21 02:26:13;;;;;;;20.50;17.57;;;4.20;99.90;;;;;;2664708;28;20769;-69
2021/11/21 02:27:32;;;;;;;19.83;17.70;;;4.20;99.90;;;;;;2667598;28;20467;-69
2021/11/21 02:28:54;;;;;;;21.67;16.90;;;4.20;99.90;;;;;;2665742;28;20574;-69
2021/11/21 02:30:12;;;;;;;22.20;17.75;;;4.20;99.90;;;;;;2666530;28;20201;-69
2021/11/21 02:31:31;;;;;;;23.38;18.25;;;4.20;99.90;;;;;;2667588;28;21017;-69
2021/11/21 02:32:51;;;;;;;22.98;17.80;;;4.20;99.90;;;;;;2666454;28;20209;-69
2021/11/21 02:34:10;;;;;;;23.05;17.20;;;4.10;99.90;;;;;;2667569;28;20660;-69
2021/11/21 02:35:28;;;;;;;23.00;17.90;;;4.20;99.90;;;;;;2665456;28;20213;-69
2021/11/21 02:36:47;;;;;;;24.38;18.77;;;4.20;99.90;;;;;;2666390;28;20626;-70
2021/11/21 02:38:06;;;;;;;24.48;19.20;;;4.20;99.90;;;;;;2666925;28;20621;-69
2021/11/21 02:39:25;;;;;;;21.38;17.48;;;4.20;99.90;;;;;;2667961;28;20968;-69
2021/11/21 02:40:43;;;;;;;21.48;17.70;;;4.20;99.90;;;;;;2667405;28;20209;-69
2021/11/21 02:42:02;;;;;;;25.60;18.13;;;4.20;99.90;;;;;;2667970;28;20682;-69
2021/11/21 02:43:21;;;;;;;21.90;17.92;;;4.20;99.90;;;;;;2665082;28;20674;-69
2021/11/21 02:44:41;;;;;;;23.40;16.92;;;4.20;99.90;;;;;;2665594;28;20210;-69
2021/11/21 02:46:00;;;;;;;22.88;17.80;;;4.20;99.90;;;;;;2665075;28;20251;-69
2021/11/21 02:47:18;;;;;;;19.65;16.70;;;4.20;99.90;;;;;;2667490;28;20717;-69
2021/11/21 02:48:38;;;;;;;21.27;16.40;;;4.20;99.90;;;;;;2664618;28;20217;-69
2021/11/21 02:49:55;;;;;;;21.90;16.55;;;4.20;99.90;;;;;;2661326;28;20462;-69
2021/11/21 02:51:15;;;;;;;23.10;17.35;;;4.20;99.90;;;;;;2665226;28;20818;-69
2021/11/21 02:52:33;;;;;;;18.92;15.50;;;4.20;99.90;;;;;;2663309;28;20611;-69
2021/11/21 02:53:52;;;;;;;20.97;16.27;;;4.20;99.90;;;;;;2663887;28;20203;-69
2021/11/21 02:55:11;;;;;;;23.65;18.35;;;4.20;99.90;;;;;;2666967;28;20888;-69
2021/11/21 02:56:30;;;;;;;20.80;16.15;;;4.20;99.90;;;;;;2659458;28;20213;-70
2021/11/21 02:57:48;;;;;;;23.00;17.15;;;4.20;99.90;;;;;;2667794;28;20306;-69
2021/11/21 02:59:07;;;;;;;19.67;16.67;;;4.30;99.90;;;;;;2665631;28;20212;-69
2021/11/21 03:00:25;;;;;;;22.60;16.00;;;4.30;99.90;;;;;;2663696;28;20256;-69
2021/11/21 03:01:44;;;;;;;21.48;17.13;;;4.30;99.90;;;;;;2664096;28;20563;-69
2021/11/21 03:03:03;;;;;;;22.60;17.02;;;4.30;99.90;;;;;;2661015;28;20201;-69
2021/11/21 03:04:25;;;;;;;21.67;16.33;;;4.30;99.90;;;;;;2664878;28;20701;-70
2021/11/21 03:05:43;;;;;;;21.50;16.80;;;4.20;99.90;;;;;;2663087;28;20254;-70
2021/11/21 03:07:02;;;;;;;19.13;16.92;;;4.20;99.90;;;;;;2665322;28;20597;-70
2021/11/21 03:08:21;;;;;;;19.52;16.73;;;4.20;99.90;;;;;;2662169;28;20365;-69
2021/11/21 03:09:40;;;;;;;18.63;16.48;;;4.20;99.90;;;;;;2663837;28;20217;-70
2021/11/21 03:11:06;;;;;;;18.50;16.27;;;4.20;99.90;;;;;;2662471;28;20292;-69
2021/11/21 03:12:25;;;;;;;20.00;16.35;;;4.20;99.90;;;;;;2664543;28;20929;-70
2021/11/21 03:13:44;;;;;;;18.75;15.18;;;4.20;99.90;;;;;;2667041;28;20254;-70
2021/11/21 03:15:04;;;;;;;20.20;16.17;;;4.20;99.90;;;;;;2665259;28;20210;-69
2021/11/21 03:16:23;;;;;;;18.95;15.65;;;4.20;99.90;;;;;;2662358;28;20774;-70
2021/11/21 03:17:43;;;;;;;20.60;16.88;;;4.20;99.90;;;;;;2666418;28;20218;-69
2021/11/21 03:19:01;;;;;;;20.83;16.90;;;4.20;99.90;;;;;;2667357;28;20347;-69
2021/11/21 03:20:26;;;;;;;19.65;16.17;;;4.30;99.90;;;;;;2665366;28;20593;-69
2021/11/21 03:21:45;;;;;;;21.15;16.67;;;4.40;99.90;;;;;;2664185;28;20206;-69
2021/11/21 03:23:06;;;;;;;21.52;17.30;;;4.40;99.90;;;;;;2668852;28;20770;-69
2021/11/21 03:24:24;;;;;;;20.33;16.65;;;4.30;99.90;;;;;;2669222;28;20213;-69
2021/11/21 03:25:42;;;;;;;21.90;16.48;;;4.30;99.90;;;;;;2668667;28;20724;-69
2021/11/21 03:27:01;;;;;;;24.60;17.73;;;4.40;99.90;;;;;;2667788;28;20210;-69
2021/11/21 03:28:20;;;;;;;23.30;17.80;;;4.40;99.90;;;;;;2667690;28;20218;-69
2021/11/21 03:29:39;;;;;;;19.85;17.73;;;4.30;99.90;;;;;;2669233;28;20205;-70
2021/11/21 03:30:57;;;;;;;18.75;16.63;;;4.30;99.90;;;;;;2663260;28;20206;-69
2021/11/21 03:32:17;;;;;;;18.95;16.88;;;4.30;99.90;;;;;;2664795;28;20233;-69
2021/11/21 03:33:36;;;;;;;18.75;16.63;;;4.30;99.90;;;;;;2668700;28;20204;-69
2021/11/21 03:34:53;;;;;;;22.73;16.70;;;4.10;99.90;;;;;;2667301;28;20202;-69
2021/11/21 03:36:12;;;;;;;21.17;17.00;;;4.10;99.90;;;;;;2667175;28;20571;-69
2021/11/21 03:37:31;;;;;;;22.02;17.75;;;4.10;99.90;;;;;;2668881;28;20498;-69
2021/11/21 03:38:49;;;;;;;23.85;17.83;;;4.00;99.90;;;;;;2668419;28;20201;-69
2021/11/21 03:40:10;;;;;;;22.02;17.80;;;4.00;99.90;;;;;;2668034;28;20204;-69
2021/11/21 03:41:29;;;;;;;21.35;15.93;;;4.00;99.90;;;;;;2667402;28;20690;-69
2021/11/21 03:42:48;;;;;;;21.77;16.95;;;4.00;99.90;;;;;;2667863;28;20300;-69
2021/11/21 03:44:08;;;;;;;20.65;17.02;;;4.00;99.90;;;;;;2664716;28;20646;-69
2021/11/21 03:45:27;;;;;;;19.27;16.00;;;4.10;99.90;;;;;;2667166;28;20560;-69
2021/11/21 03:46:45;;;;;;;22.55;17.33;;;4.00;99.90;;;;;;2669498;28;20207;-69
2021/11/21 03:48:04;;;;;;;21.07;17.77;;;4.00;99.90;;;;;;2668776;28;20336;-69
2021/11/21 03:49:21;;;;;;;24.55;18.75;;;4.00;99.90;;;;;;2661828;28;20471;-69
2021/11/21 03:50:40;;;;;;;22.07;17.00;;;4.00;99.90;;;;;;2663190;28;20254;-69
2021/11/21 03:51:58;;;;;;;22.00;17.60;;;3.90;99.90;;;;;;2661966;28;20939;-69
2021/11/21 03:53:18;;;;;;;22.15;18.17;;;3.80;99.90;;;;;;2666894;28;20223;-69
2021/11/21 03:54:36;;;;;;;21.13;16.67;;;3.80;99.90;;;;;;2666793;28;20216;-69
2021/11/21 03:55:55;;;;;;;22.48;16.10;;;3.80;99.90;;;;;;2668716;28;20254;-69
2021/11/21 03:57:14;;;;;;;21.77;17.20;;;3.70;99.90;;;;;;2665327;28;20203;-69
2021/11/21 03:58:33;;;;;;;30.73;18.27;;;3.70;99.90;;;;;;2666454;28;20207;-69
2021/11/21 03:59:51;;;;;;;20.60;16.95;;;3.70;99.90;;;;;;2668101;28;20203;-69
2021/11/21 04:01:10;;;;;;;18.93;16.10;;;3.60;99.90;;;;;;2661756;28;20660;-69
2021/11/21 04:02:27;;;;;;;23.75;17.95;;;3.60;99.90;;;;;;2668072;28;20560;-69
2021/11/21 04:03:46;;;;;;;19.95;17.05;;;3.60;99.90;;;;;;2667142;28;20221;-69
2021/11/21 04:05:05;;;;;;;20.65;17.33;;;3.60;99.90;;;;;;2668977;28;20212;-69
2021/11/21 04:06:24;;;;;;;22.77;18.27;;;3.60;99.90;;;;;;2666296;28;20672;-69
2021/11/21 04:07:41;;;;;;;25.35;17.92;;;3.50;99.90;;;;;;2668397;28;20660;-69
2021/11/21 04:09:00;;;;;;;21.52;17.20;;;3.50;99.90;;;;;;2668979;28;20202;-69
2021/11/21 04:10:19;;;;;;;25.70;17.10;;;3.40;99.90;;;;;;2663158;28;20746;-69
2021/11/21 04:11:37;;;;;;;21.20;17.52;;;3.40;99.90;;;;;;2663484;28;20288;-70
2021/11/21 04:12:56;;;;;;;20.37;16.83;;;3.40;99.90;;;;;;2664106;28;20214;-69
2021/11/21 04:14:14;;;;;;;22.33;16.17;;;3.40;99.90;;;;;;2665357;28;20463;-69
2021/11/21 04:15:33;;;;;;;21.02;16.58;;;3.50;99.90;;;;;;2659196;28;20219;-70
2021/11/21 04:16:51;;;;;;;20.70;16.77;;;3.50;99.90;;;;;;2666546;28;20617;-69
2021/11/21 04:18:10;;;;;;;25.83;16.23;;;3.40;99.90;;;;;;2668020;28;20204;-70
2021/11/21 04:19:29;;;;;;;22.85;16.88;;;3.50;99.90;;;;;;2669011;28;20493;-69
2021/11/21 04:20:49;;;;;;;22.55;17.80;;;3.50;99.90;;;;;;2665406;28;20819;-69
2021/11/21 04:22:08;;;;;;;19.52;16.65;;;3.50;99.90;;;;;;2662240;28;20452;-69
2021/11/21 04:23:29;;;;;;;18.80;16.15;;;3.40;99.90;;;;;;2668349;28;20523;-69
2021/11/21 04:24:47;;;;;;;20.40;16.40;;;3.40;99.90;;;;;;2668722;28;20203;-69
2021/11/21 04:26:05;;;;;;;22.50;15.63;;;3.40;99.90;;;;;;2668777;28;20209;-69
2021/11/21 04:27:26;;;;;;;20.08;16.35;;;3.40;99.90;;;;;;2667314;28;20466;-69
2021/11/21 04:28:45;;;;;;;21.75;16.98;;;3.30;99.90;;;;;;2665447;28;20264;-69
2021/11/21 04:30:05;;;;;;;21.02;17.23;;;3.30;99.90;;;;;;2664469;28;20198;-69
2021/11/21 04:31:24;;;;;;;21.55;15.93;;;3.20;99.90;;;;;;2664006;28;20546;-69
2021/11/21 04:32:44;;;;;;;19.05;15.57;;;3.20;99.90;;;;;;2667440;28;20712;-69
2021/11/21 04:34:03;;;;;;;35.78;18.48;;;3.30;99.90;;;;;;2667171;28;20222;-69
2021/11/21 04:35:22;;;;;;;20.95;16.63;;;3.20;99.90;;;;;;2667526;28;20260;-69
2021/11/21 04:36:41;;;;;;;21.83;16.98;;;3.10;99.90;;;;;;2667972;28;20210;-69
2021/11/21 04:38:00;;;;;;;22.48;16.90;;;3.20;99.90;;;;;;2668790;28;20207;-69
2021/11/21 04:39:18;;;;;;;24.05;18.63;;;3.10;99.90;;;;;;2666059;28;20221;-69
2021/11/21 04:40:36;;;;;;;26.33;18.10;;;3.10;99.90;;;;;;2660686;28;20223;-69
2021/11/21 04:41:55;;;;;;;24.95;19.30;;;3.20;99.90;;;;;;2663677;28;20210;-70
2021/11/21 04:43:15;;;;;;;24.27;17.90;;;3.30;99.90;;;;;;2654681;28;20233;-70
2021/11/21 04:44:33;;;;;;;24.05;18.90;;;3.20;99.90;;;;;;2658226;28;20203;-69
2021/11/21 04:45:53;;;;;;;23.02;19.60;;;3.10;99.90;;;;;;2666559;28;20290;-69
2021/11/21 04:47:12;;;;;;;23.58;17.77;;;3.00;99.90;;;;;;2662031;28;20245;-70
2021/11/21 04:48:32;;;;;;;26.73;18.90;;;3.10;99.90;;;;;;2668838;28;20947;-69
2021/11/21 04:49:51;;;;;;;20.73;15.50;;;3.00;99.90;;;;;;2668248;28;20206;-69
2021/11/21 04:51:11;;;;;;;22.63;16.90;;;3.10;99.90;;;;;;2665236;28;20202;-70
2021/11/21 04:52:29;;;;;;;17.73;15.73;;;3.10;99.90;;;;;;2658636;28;20235;-69
2021/11/21 04:53:48;;;;;;;22.73;16.52;;;3.00;99.90;;;;;;2667946;28;20206;-69
2021/11/21 04:55:08;;;;;;;21.15;16.10;;;3.00;99.90;;;;;;2668273;28;20208;-69
2021/11/21 04:56:27;;;;;;;21.95;15.68;;;3.00;99.90;;;;;;2668071;28;20893;-69
2021/11/21 04:57:46;;;;;;;19.85;14.80;;;2.90;99.90;;;;;;2668189;28;20688;-69
2021/11/21 04:59:04;;;;;;;20.65;15.52;;;3.00;99.90;;;;;;2667096;28;20204;-69
2021/11/21 05:00:24;;;;;;;21.73;15.43;;;3.10;99.90;;;;;;2666832;28;20214;-69
2021/11/21 05:01:42;;;;;;;18.85;14.80;;;3.10;99.90;;;;;;2662063;28;20196;-69
2021/11/21 05:03:00;;;;;;;20.88;15.45;;;3.20;99.90;;;;;;2666513;28;20764;-69
2021/11/21 05:04:19;;;;;;;19.88;15.93;;;3.20;99.90;;;;;;2664188;28;20214;-69
2021/11/21 05:05:38;;;;;;;20.40;14.75;;;3.20;99.90;;;;;;2668955;28;20212;-69
2021/11/21 05:06:56;;;;;;;20.83;16.15;;;3.20;99.90;;;;;;2669130;28;20571;-69
2021/11/21 05:08:14;;;;;;;26.33;17.10;;;3.20;99.90;;;;;;2664979;28;20204;-69
2021/11/21 05:09:33;;;;;;;20.27;16.17;;;3.10;99.90;;;;;;2665193;28;20256;-69
2021/11/21 05:10:52;;;;;;;28.65;14.65;;;3.10;99.90;;;;;;2667803;28;20204;-69
2021/11/21 05:12:10;;;;;;;19.40;14.43;;;3.00;99.90;;;;;;2664584;28;20325;-69
2021/11/21 05:13:29;;;;;;;18.90;14.03;;;3.00;99.90;;;;;;2660298;28;20709;-69
2021/11/21 05:14:46;;;;;;;28.00;14.90;;;3.00;99.90;;;;;;2668612;28;20458;-70
2021/11/21 05:16:05;;;;;;;19.70;14.47;;;3.10;99.90;;;;;;2664647;28;20210;-69
2021/11/21 05:17:23;;;;;;;29.63;16.00;;;2.90;99.90;;;;;;2668780;28;20447;-69
2021/11/21 05:18:42;;;;;;;18.47;13.73;;;3.00;99.90;;;;;;2667984;28;20210;-69
2021/11/21 05:20:00;;;;;;;24.38;15.57;;;3.00;99.90;;;;;;2663196;28;20944;-70
2021/11/21 05:21:21;;;;;;;22.42;15.40;;;3.00;99.90;;;;;;2666532;28;20712;-69
2021/11/21 05:22:40;;;;;;;39.85;15.15;;;2.90;99.90;;;;;;2665617;28;20683;-69
2021/11/21 05:24:00;;;;;;;23.83;16.10;;;2.90;99.90;;;;;;2667888;28;20213;-69
2021/11/21 05:25:19;;;;;;;19.77;15.07;;;2.90;99.90;;;;;;2667922;28;20207;-69
2021/11/21 05:26:38;;;;;;;17.52;13.45;;;2.90;99.90;;;;;;2668576;28;20214;-69
2021/11/21 05:27:57;;;;;;;16.83;13.85;;;2.90;99.90;;;;;;2668470;28;20762;-69
2021/11/21 05:29:15;;;;;;;18.48;14.95;;;2.90;99.90;;;;;;2668655;28;20207;-69
2021/11/21 05:30:34;;;;;;;20.73;15.20;;;3.00;99.90;;;;;;2665204;28;20283;-69
2021/11/21 05:31:53;;;;;;;19.90;14.63;;;3.10;99.90;;;;;;2668542;28;20253;-69
2021/11/21 05:33:11;;;;;;;21.90;14.68;;;3.10;99.90;;;;;;2667972;28;20202;-69
2021/11/21 05:34:29;;;;;;;19.15;13.65;;;3.10;99.90;;;;;;2660355;28;20241;-69
2021/11/21 05:35:48;;;;;;;24.63;13.97;;;3.10;99.90;;;;;;2668537;28;20211;-69
2021/11/21 05:37:07;;;;;;;22.10;13.27;;;3.10;99.90;;;;;;2666026;28;20510;-69
2021/11/21 05:38:25;;;;;;;23.35;16.63;;;3.10;99.90;;;;;;2668252;28;20207;-69
2021/11/21 05:39:44;;;;;;;18.98;13.63;;;3.10;99.90;;;;;;2668181;28;20199;-69
2021/11/21 05:41:03;;;;;;;20.75;13.77;;;3.10;99.90;;;;;;2668684;28;20318;-69
2021/11/21 05:42:21;;;;;;;17.52;14.18;;;3.00;99.90;;;;;;2666028;28;20264;-69
2021/11/21 05:43:40;;;;;;;17.17;13.23;;;3.00;99.90;;;;;;2660106;28;20648;-69
2021/11/21 05:44:58;;;;;;;18.15;14.15;;;3.00;99.90;;;;;;2667506;28;21000;-69
2021/11/21 05:46:17;;;;;;;16.73;14.20;;;3.10;99.90;;;;;;2668081;28;20207;-69
2021/11/21 05:47:35;;;;;;;20.13;15.07;;;3.00;99.90;;;;;;2661013;28;20204;-69
2021/11/21 05:48:54;;;;;;;19.00;15.23;;;3.10;99.90;;;;;;2664271;28;20209;-69
2021/11/21 05:50:13;;;;;;;18.45;14.20;;;3.10;99.90;;;;;;2659516;28;20210;-69
2021/11/21 05:51:31;;;;;;;30.70;14.52;;;3.10;99.90;;;;;;2662392;28;20271;-69
2021/11/21 05:52:53;;;;;;;16.30;13.63;;;3.00;99.90;;;;;;2661994;28;20352;-69
2021/11/21 05:54:11;;;;;;;17.02;13.82;;;2.90;99.90;;;;;;2662798;28;20448;-69
2021/11/21 05:55:30;;;;;;;16.83;13.57;;;2.90;99.90;;;;;;2664002;28;20821;-69
2021/11/21 05:56:47;;;;;;;16.55;13.85;;;2.90;99.90;;;;;;2668296;28;20456;-69
2021/11/21 05:58:06;;;;;;;16.80;14.00;;;3.00;99.90;;;;;;2662608;28;20202;-69
2021/11/21 05:59:25;;;;;;;17.83;13.93;;;3.00;99.90;;;;;;2666695;28;20740;-69
2021/11/21 06:00:43;;;;;;;16.63;12.88;;;3.00;99.90;;;;;;2663402;28;20913;-69
2021/11/21 06:02:01;;;;;;;18.70;14.90;;;3.00;99.90;;;;;;2662961;28;20233;-70
2021/11/21 06:03:20;;;;;;;16.15;13.63;;;3.10;99.90;;;;;;2665173;28;20211;-69
2021/11/21 06:04:39;;;;;;;16.27;13.93;;;3.10;99.90;;;;;;2660017;28;20205;-69
2021/11/21 06:05:56;;;;;;;17.55;14.40;;;3.00;99.90;;;;;;2665931;28;20267;-69
2021/11/21 06:07:15;;;;;;;17.03;14.00;;;3.10;99.90;;;;;;2667691;28;20245;-69
2021/11/21 06:08:34;;;;;;;18.38;15.25;;;3.10;99.90;;;;;;2668447;28;20520;-69
2021/11/21 06:09:53;;;;;;;17.83;15.73;;;3.10;99.90;;;;;;2666997;28;20216;-69
2021/11/21 06:11:11;;;;;;;17.48;14.52;;;3.10;99.90;;;;;;2660378;28;20208;-69
2021/11/21 06:12:31;;;;;;;17.83;13.50;;;3.20;99.90;;;;;;2665984;28;20376;-69
2021/11/21 06:13:50;;;;;;;14.73;12.13;;;3.20;99.90;;;;;;2661758;28;20228;-69
2021/11/21 06:15:09;;;;;;;17.10;14.35;;;3.30;99.90;;;;;;2667940;28;20207;-69
2021/11/21 06:16:28;;;;;;;16.90;14.35;;;3.20;99.90;;;;;;2664892;28;20302;-69
2021/11/21 06:17:47;;;;;;;17.48;14.75;;;3.20;99.90;;;;;;2667400;28;20213;-69
2021/11/21 06:19:05;;;;;;;16.58;14.77;;;3.20;99.90;;;;;;2667777;28;20615;-69
2021/11/21 06:20:24;;;;;;;21.02;13.73;;;3.20;99.90;;;;;;2666778;28;20770;-69
2021/11/21 06:21:42;;;;;;;20.42;15.50;;;3.10;99.90;;;;;;2667847;28;20833;-69
2021/11/21 06:23:01;;;;;;;21.53;14.13;;;3.10;99.90;;;;;;2663069;28;20257;-69
2021/11/21 06:24:20;;;;;;;26.33;14.80;;;3.10;99.90;;;;;;2662228;28;20964;-69
2021/11/21 06:25:42;;;;;;;15.73;12.90;;;3.00;99.90;;;;;;2666637;28;20218;-69
2021/11/21 06:27:01;;;;;;;15.95;13.43;;;2.90;99.90;;;;;;2664311;28;20706;-69
2021/11/21 06:28:20;;;;;;;15.75;13.43;;;3.00;99.90;;;;;;2664474;28;20290;-69
2021/11/21 06:29:39;;;;;;;17.25;14.02;;;3.10;99.90;;;;;;2662985;28;20314;-69
2021/11/21 06:30:58;;;;;;;17.23;13.52;;;3.10;99.90;;;;;;2661826;28;20326;-69
2021/11/21 06:32:17;;;;;;;18.13;14.02;;;3.10;99.90;;;;;;2658213;28;20565;-69
2021/11/21 06:33:36;;;;;;;19.92;14.77;;;3.10;99.90;;;;;;2666557;28;20725;-69
2021/11/21 06:34:54;;;;;;;21.13;15.43;;;3.10;99.90;;;;;;2667831;28;21274;-69
2021/11/21 06:36:13;;;;;;;16.70;14.30;;;3.10;99.90;;;;;;2668052;28;20439;-69
2021/11/21 06:37:31;;;;;;;18.05;14.07;;;3.10;99.90;;;;;;2660626;28;20506;-69
2021/11/21 06:38:50;;;;;;;17.92;14.43;;;3.20;99.90;;;;;;2658268;28;20196;-69
2021/11/21 06:40:09;;;;;;;15.25;12.65;;;3.30;99.90;;;;;;2663794;28;20769;-69
2021/11/21 06:41:28;;;;;;;19.45;13.50;;;3.20;99.90;;;;;;2667764;28;20575;-69
2021/11/21 06:42:47;;;;;;;17.73;14.55;;;3.20;99.90;;;;;;2663850;28;20203;-69
2021/11/21 06:44:06;;;;;;;15.25;13.32;;;3.10;99.90;;;;;;2667362;28;20210;-69
2021/11/21 06:45:25;;;;;;;18.95;14.35;;;3.20;99.90;;;;;;2660976;28;20344;-69